createdAt,value
2022-10-16T00:01:41.382Z,7.23
2022-10-16T00:04:10.429Z,7.77
2022-10-16T00:06:40.249Z,7.10
2022-10-16T00:09:09.148Z,7.27
2022-10-16T00:11:39.597Z,7.60
2022-10-16T00:14:10.116Z,7.77
2022-10-16T00:16:38.261Z,7.07
2022-10-16T00:19:06.689Z,7.03
2022-10-16T00:21:35.713Z,8.07
2022-10-16T00:24:07.416Z,7.63
2022-10-16T00:26:36.517Z,8.00
2022-10-16T00:29:05.861Z,8.10
2022-10-16T00:31:34.321Z,7.07
2022-10-16T00:34:02.484Z,7.50
2022-10-16T00:36:31.699Z,7.97
2022-10-16T00:41:36.544Z,7.50
2022-10-16T00:44:06.311Z,7.27
2022-10-16T00:46:40.092Z,7.43
2022-10-16T00:49:11.826Z,6.97
2022-10-16T00:51:42.989Z,7.07
2022-10-16T00:54:14.315Z,7.53
2022-10-16T00:56:44.775Z,6.63
2022-10-16T00:59:18.767Z,6.67
2022-10-16T01:01:47.409Z,7.40
2022-10-16T01:04:15.609Z,7.27
2022-10-16T01:06:49.776Z,6.77
2022-10-16T01:09:25.450Z,6.30
2022-10-16T01:12:05.231Z,7.73
2022-10-16T01:14:41.701Z,7.33
2022-10-16T01:17:14.949Z,6.90
2022-10-16T01:20:03.573Z,7.23
2022-10-16T01:22:40.207Z,7.83
2022-10-16T01:25:14.083Z,6.67
2022-10-16T01:27:46.505Z,7.53
2022-10-16T01:30:19.274Z,6.80
2022-10-16T01:32:52.262Z,7.27
2022-10-16T01:35:25.401Z,6.60
2022-10-16T01:37:58.284Z,7.10
2022-10-16T01:40:29.184Z,7.03
2022-10-16T01:43:02.639Z,6.83
2022-10-16T01:45:33.718Z,6.60
2022-10-16T01:48:05.231Z,6.57
2022-10-16T01:50:35.413Z,7.27
2022-10-16T01:53:05.577Z,6.43
2022-10-16T01:55:37.635Z,5.93
2022-10-16T01:58:09.868Z,6.57
2022-10-16T02:00:40.448Z,6.40
2022-10-16T02:03:09.425Z,6.77
2022-10-16T02:05:43.263Z,6.33
2022-10-16T02:08:11.451Z,6.20
2022-10-16T02:10:40.321Z,7.10
2022-10-16T02:13:13.421Z,6.60
2022-10-16T02:15:41.613Z,6.00
2022-10-16T02:18:10.648Z,6.40
2022-10-16T02:20:44.992Z,6.07
2022-10-16T02:23:19.456Z,5.80
2022-10-16T02:25:49.791Z,6.40
2022-10-16T02:28:24.585Z,6.53
2022-10-16T02:30:56.068Z,6.70
2022-10-16T02:33:25.747Z,6.90
2022-10-16T02:35:55.483Z,6.60
2022-10-16T02:38:24.973Z,6.63
2022-10-16T02:40:53.474Z,6.40
2022-10-16T02:43:22.974Z,6.67
2022-10-16T02:45:51.221Z,6.17
2022-10-16T02:48:19.291Z,6.07
2022-10-16T02:50:47.435Z,6.37
2022-10-16T02:53:15.596Z,5.83
2022-10-16T02:55:43.727Z,5.67
2022-10-16T02:58:11.816Z,5.93
2022-10-16T03:00:41.435Z,5.97
2022-10-16T03:03:09.626Z,6.27
2022-10-16T03:05:37.717Z,6.37
2022-10-16T03:08:06.072Z,5.90
2022-10-16T03:10:34.221Z,6.13
2022-10-16T03:13:02.364Z,5.83
2022-10-16T03:15:30.498Z,6.70
2022-10-16T03:18:01.459Z,6.30
2022-10-16T03:20:29.529Z,6.37
2022-10-16T03:22:57.591Z,5.93
2022-10-16T03:25:25.729Z,6.03
2022-10-16T03:27:54.320Z,6.10
2022-10-16T03:30:22.580Z,6.50
2022-10-16T03:32:54.946Z,6.10
2022-10-16T03:35:25.594Z,5.93
2022-10-16T03:37:54.225Z,5.43
2022-10-16T03:40:22.352Z,5.93
2022-10-16T03:42:50.502Z,6.27
2022-10-16T03:45:18.837Z,4.93
2022-10-16T03:47:46.939Z,6.90
2022-10-16T03:50:15.024Z,5.30
2022-10-16T03:52:44.501Z,5.23
2022-10-16T03:55:12.616Z,5.43
2022-10-16T03:57:40.707Z,4.93
2022-10-16T04:00:09.853Z,5.43
2022-10-16T04:02:38.002Z,4.83
2022-10-16T04:05:06.609Z,4.63
2022-10-16T04:07:34.728Z,4.50
2022-10-16T04:10:04.371Z,4.80
2022-10-16T04:12:32.449Z,4.80
2022-10-16T04:15:00.621Z,4.30
2022-10-16T04:17:28.878Z,4.20
2022-10-16T04:19:57.182Z,5.07
2022-10-16T04:22:25.335Z,4.23
2022-10-16T04:24:53.442Z,4.57
2022-10-16T04:27:23.011Z,4.47
2022-10-16T04:29:51.325Z,5.10
2022-10-16T04:32:19.436Z,6.60
2022-10-16T04:34:47.558Z,6.00
2022-10-16T04:37:15.616Z,6.60
2022-10-16T04:39:43.688Z,5.93
2022-10-16T04:42:11.801Z,6.33
2022-10-16T04:44:41.321Z,5.77
2022-10-16T04:47:09.419Z,5.90
2022-10-16T04:49:37.546Z,4.93
2022-10-16T04:52:05.845Z,5.57
2022-10-16T04:54:34.103Z,6.07
2022-10-16T04:57:02.157Z,5.63
2022-10-16T04:59:30.258Z,5.30
2022-10-16T05:01:59.732Z,5.20
2022-10-16T05:04:27.809Z,5.13
2022-10-16T05:06:55.867Z,5.60
2022-10-16T05:09:24.365Z,5.70
2022-10-16T05:11:52.420Z,5.37
2022-10-16T05:14:20.529Z,4.80
2022-10-16T05:16:49.231Z,4.23
2022-10-16T05:19:33.934Z,4.00
2022-10-16T05:22:02.143Z,3.27
2022-10-16T05:24:30.241Z,3.37
2022-10-16T05:26:58.592Z,3.33
2022-10-16T05:29:26.947Z,3.10
2022-10-16T05:31:55.424Z,3.07
2022-10-16T05:34:24.961Z,2.57
2022-10-16T05:36:53.070Z,3.03
2022-10-16T05:39:21.455Z,2.90
2022-10-16T05:41:51.511Z,3.10
2022-10-16T05:44:19.575Z,2.67
2022-10-16T05:46:48.975Z,2.90
2022-10-16T05:49:17.349Z,2.87
2022-10-16T05:51:46.778Z,2.70
2022-10-16T05:54:15.098Z,3.30
2022-10-16T05:56:43.191Z,5.80
2022-10-16T05:59:11.308Z,4.90
2022-10-16T06:01:39.418Z,6.20
2022-10-16T06:04:07.574Z,6.13
2022-10-16T06:06:37.287Z,6.80
2022-10-16T06:09:07.235Z,7.17
2022-10-16T06:11:36.093Z,8.60
2022-10-16T06:14:07.816Z,8.40
2022-10-16T06:16:37.832Z,11.90
2022-10-16T06:19:07.327Z,13.63
2022-10-16T06:21:35.883Z,14.57
2022-10-16T06:24:04.188Z,14.10
2022-10-16T06:26:33.801Z,14.00
2022-10-16T06:29:02.463Z,14.97
2022-10-16T06:31:32.054Z,15.03
2022-10-16T06:34:00.513Z,15.17
2022-10-16T06:36:28.982Z,18.23
2022-10-16T06:38:57.267Z,18.90
2022-10-16T06:41:25.522Z,19.07
2022-10-16T06:43:55.061Z,20.87
2022-10-16T06:46:26.476Z,20.50
2022-10-16T06:48:54.936Z,25.67
2022-10-16T06:51:24.768Z,24.63
2022-10-16T06:54:03.236Z,26.93
2022-10-16T06:56:32.723Z,27.33
2022-10-16T06:59:03.122Z,27.73
2022-10-16T07:01:31.883Z,28.17
2022-10-16T07:04:00.000Z,28.37
2022-10-16T07:06:29.473Z,31.57
2022-10-16T07:08:57.799Z,30.97
2022-10-16T07:11:26.335Z,31.90
2022-10-16T07:13:56.170Z,34.20
2022-10-16T07:16:28.154Z,38.47
2022-10-16T07:18:59.553Z,39.20
2022-10-16T07:21:29.933Z,42.83
2022-10-16T07:24:00.122Z,38.67
2022-10-16T07:26:29.463Z,33.87
2022-10-16T07:28:58.057Z,28.30
2022-10-16T07:31:27.849Z,23.63
2022-10-16T07:33:56.833Z,20.43
2022-10-16T07:36:24.910Z,16.87
2022-10-16T07:38:55.631Z,15.80
2022-10-16T07:41:26.919Z,53.30
2022-10-16T07:43:56.016Z,20.90
2022-10-16T07:46:25.070Z,16.83
2022-10-16T07:48:54.814Z,15.27
2022-10-16T07:51:24.243Z,14.10
2022-10-16T07:53:53.139Z,12.43
2022-10-16T07:56:21.652Z,10.30
2022-10-16T07:58:50.757Z,8.13
2022-10-16T08:01:20.157Z,9.37
2022-10-16T08:03:49.844Z,8.83
2022-10-16T08:06:23.377Z,9.03
2022-10-16T08:08:55.139Z,9.20
2022-10-16T08:11:24.288Z,9.53
2022-10-16T08:13:52.397Z,12.67
2022-10-16T08:16:20.572Z,13.20
2022-10-16T08:18:48.711Z,22.43
2022-10-16T08:21:21.238Z,26.13
2022-10-16T08:23:54.627Z,26.70
2022-10-16T08:26:26.628Z,25.10
2022-10-16T08:28:55.086Z,26.47
2022-10-16T08:31:23.955Z,40.33
2022-10-16T08:33:53.184Z,34.53
2022-10-16T08:36:22.772Z,31.80
2022-10-16T08:38:54.408Z,32.27
2022-10-16T08:42:02.186Z,30.37
2022-10-16T08:44:55.741Z,30.80
2022-10-16T08:47:28.097Z,31.97
2022-10-16T08:49:59.980Z,29.30
2022-10-16T08:52:33.193Z,28.70
2022-10-16T08:55:01.473Z,30.30
2022-10-16T08:57:29.653Z,31.10
2022-10-16T09:00:02.513Z,28.27
2022-10-16T09:02:36.525Z,28.80
2022-10-16T09:05:22.472Z,32.10
2022-10-16T09:10:45.936Z,29.70
2022-10-16T09:13:21.477Z,28.60
2022-10-16T09:15:56.584Z,27.90
2022-10-16T09:18:33.038Z,27.30
2022-10-16T09:21:07.978Z,26.73
2022-10-16T09:23:39.354Z,26.83
2022-10-16T09:26:12.088Z,27.43
2022-10-16T09:28:40.411Z,25.53
2022-10-16T09:31:15.578Z,24.07
2022-10-16T09:33:46.025Z,26.60
2022-10-16T09:36:15.256Z,26.07
2022-10-16T09:38:44.756Z,25.03
2022-10-16T09:41:26.170Z,22.97
2022-10-16T09:43:57.480Z,26.63
2022-10-16T09:46:29.667Z,25.70
2022-10-16T09:49:00.245Z,25.43
2022-10-16T09:51:30.813Z,25.40
2022-10-16T09:54:02.562Z,28.70
2022-10-16T09:56:33.457Z,30.30
2022-10-16T09:59:04.643Z,28.57
2022-10-16T10:01:38.720Z,30.03
2022-10-16T10:04:08.027Z,28.53
2022-10-16T10:06:39.244Z,29.87
2022-10-16T10:09:19.178Z,29.50
2022-10-16T10:11:58.428Z,29.47
2022-10-16T10:14:34.597Z,31.40
2022-10-16T10:17:15.038Z,29.33
2022-10-16T10:19:51.475Z,31.90
2022-10-16T10:22:31.062Z,31.13
2022-10-16T10:25:22.039Z,33.33
2022-10-16T10:28:02.586Z,30.57
2022-10-16T10:30:40.202Z,27.70
2022-10-16T10:33:20.920Z,28.87
2022-10-16T10:35:58.456Z,29.77
2022-10-16T10:38:40.383Z,29.47
2022-10-16T10:41:30.492Z,29.60
2022-10-16T10:44:08.437Z,28.83
2022-10-16T10:46:43.370Z,27.33
2022-10-16T10:49:31.172Z,27.70
2022-10-16T10:52:13.028Z,28.93
2022-10-16T10:54:49.336Z,28.30
2022-10-16T10:57:27.602Z,30.70
2022-10-16T11:00:11.738Z,29.77
2022-10-16T11:02:43.595Z,30.20
2022-10-16T11:05:32.153Z,28.97
2022-10-16T11:08:02.528Z,27.70
2022-10-16T11:10:38.003Z,25.70
2022-10-16T11:13:26.299Z,26.83
2022-10-16T11:15:59.205Z,27.50
2022-10-16T11:18:32.511Z,25.80
2022-10-16T11:21:06.554Z,24.30
2022-10-16T11:23:42.338Z,24.60
2022-10-16T11:26:17.332Z,22.43
2022-10-16T11:28:50.605Z,26.30
2022-10-16T11:31:24.114Z,26.07
2022-10-16T11:33:59.762Z,29.20
2022-10-16T11:36:35.219Z,27.33
2022-10-16T11:39:10.983Z,27.87
2022-10-16T11:41:45.812Z,27.57
2022-10-16T11:44:34.589Z,25.27
2022-10-16T11:47:46.787Z,22.90
2022-10-16T11:50:02.798Z,20.73
2022-10-16T11:52:38.647Z,24.50
2022-10-16T11:55:15.288Z,24.80
2022-10-16T11:57:47.967Z,24.57
2022-10-16T12:00:25.421Z,22.80
2022-10-16T12:03:04.706Z,23.80
2022-10-16T12:05:40.914Z,21.27
2022-10-16T12:08:12.369Z,22.57
2022-10-16T12:10:42.371Z,21.67
2022-10-16T12:13:32.330Z,21.93
2022-10-16T12:16:09.764Z,21.83
2022-10-16T12:18:37.821Z,23.13
2022-10-16T12:21:07.773Z,22.20
2022-10-16T12:23:39.947Z,23.97
2022-10-16T12:26:08.287Z,23.73
2022-10-16T12:28:37.376Z,24.30
2022-10-16T12:31:09.517Z,22.47
2022-10-16T12:33:41.536Z,23.97
2022-10-16T12:36:17.087Z,23.70
2022-10-16T12:38:50.070Z,21.70
2022-10-16T12:41:27.860Z,22.50
2022-10-16T12:43:56.322Z,24.77
2022-10-16T12:46:37.515Z,23.60
2022-10-16T12:49:31.570Z,23.03
2022-10-16T12:52:00.136Z,22.63
2022-10-16T12:54:31.452Z,23.07
2022-10-16T12:57:20.458Z,22.97
2022-10-16T12:59:57.702Z,22.30
2022-10-16T13:03:12.371Z,23.93
2022-10-16T13:05:52.938Z,23.10
2022-10-16T13:08:37.515Z,24.00
2022-10-16T13:11:14.239Z,23.07
2022-10-16T13:13:58.404Z,21.23
2022-10-16T13:16:35.554Z,20.13
2022-10-16T13:19:20.069Z,23.20
2022-10-16T13:21:58.406Z,24.40
2022-10-16T13:24:44.044Z,24.63
2022-10-16T13:27:22.960Z,22.23
2022-10-16T13:29:56.273Z,23.73
2022-10-16T13:32:24.681Z,24.37
2022-10-16T13:34:54.182Z,22.77
2022-10-16T13:37:26.126Z,24.13
2022-10-16T13:40:09.622Z,21.87
2022-10-16T13:42:37.743Z,21.97
2022-10-16T13:45:06.519Z,21.53
2022-10-16T13:47:34.801Z,20.63
2022-10-16T13:50:05.331Z,21.20
2022-10-16T13:52:35.263Z,23.07
2022-10-16T13:55:03.365Z,21.93
2022-10-16T13:57:31.515Z,21.83
2022-10-16T13:59:59.619Z,21.43
2022-10-16T14:02:31.289Z,21.37
2022-10-16T14:05:00.105Z,23.10
2022-10-16T14:07:30.155Z,21.60
2022-10-16T14:10:05.848Z,20.93
2022-10-16T14:12:34.875Z,20.53
2022-10-16T14:15:03.655Z,20.37
2022-10-16T14:17:34.629Z,22.43
2022-10-16T14:20:07.187Z,23.70
2022-10-16T14:22:37.982Z,23.47
2022-10-16T14:25:31.799Z,24.37
2022-10-16T14:30:37.504Z,24.13
2022-10-16T14:33:07.534Z,23.50
2022-10-16T14:35:37.580Z,24.80
2022-10-16T14:38:07.446Z,21.80
2022-10-16T14:40:39.056Z,23.30
2022-10-16T14:43:07.807Z,23.77
2022-10-16T14:45:37.426Z,21.90
2022-10-16T14:48:18.775Z,21.83
2022-10-16T14:50:48.090Z,22.03
2022-10-16T14:53:16.466Z,23.07
2022-10-16T14:55:46.598Z,23.00
2022-10-16T14:58:18.133Z,20.30
2022-10-16T15:00:46.252Z,22.87
2022-10-16T15:03:14.365Z,21.70
2022-10-16T15:05:42.557Z,21.53
2022-10-16T15:08:10.661Z,24.07
2022-10-16T15:10:45.513Z,22.30
2022-10-16T15:13:16.083Z,22.23
2022-10-16T15:15:45.946Z,22.87
2022-10-16T15:18:15.815Z,24.03
2022-10-16T15:20:44.247Z,21.93
2022-10-16T15:23:16.412Z,22.57
2022-10-16T15:25:46.478Z,22.53
2022-10-16T15:28:17.258Z,22.57
2022-10-16T15:30:47.063Z,21.07
2022-10-16T15:33:17.342Z,21.47
2022-10-16T15:35:48.183Z,20.77
2022-10-16T15:38:17.013Z,21.43
2022-10-16T15:40:45.170Z,21.10
2022-10-16T15:43:13.256Z,19.97
2022-10-16T15:45:42.968Z,20.40
2022-10-16T15:48:14.188Z,19.03
2022-10-16T15:53:12.772Z,17.40
2022-10-16T15:55:40.868Z,17.53
2022-10-16T15:58:08.993Z,17.17
2022-10-16T16:00:37.342Z,17.17
2022-10-16T16:03:06.900Z,16.50
2022-10-16T16:05:36.350Z,16.27
2022-10-16T16:08:04.548Z,17.30
2022-10-16T16:10:32.687Z,17.77
2022-10-16T16:13:00.800Z,17.87
2022-10-16T16:15:28.907Z,16.90
2022-10-16T16:17:57.087Z,16.70
2022-10-16T16:20:26.613Z,17.10
2022-10-16T16:22:54.814Z,16.93
2022-10-16T16:25:22.916Z,16.60
2022-10-16T16:27:51.049Z,16.03
2022-10-16T16:30:23.673Z,19.20
2022-10-16T16:32:54.141Z,16.63
2022-10-16T16:35:22.273Z,16.77
2022-10-16T16:37:51.729Z,16.57
2022-10-16T16:40:20.057Z,16.77
2022-10-16T16:42:50.491Z,17.03
2022-10-16T16:45:18.666Z,17.83
2022-10-16T16:47:46.841Z,18.23
2022-10-16T16:50:14.994Z,18.17
2022-10-16T16:52:43.109Z,18.00
2022-10-16T16:55:12.701Z,17.40
2022-10-16T16:57:40.808Z,16.93
2022-10-16T17:00:10.326Z,17.47
2022-10-16T17:02:38.429Z,19.50
2022-10-16T17:05:06.982Z,19.27
2022-10-16T17:07:35.574Z,19.27
2022-10-16T17:10:04.237Z,17.93
2022-10-16T17:12:33.708Z,18.37
2022-10-16T17:15:01.840Z,20.57
2022-10-16T17:17:30.262Z,19.70
2022-10-16T17:19:58.572Z,17.23
2022-10-16T17:22:26.942Z,16.90
2022-10-16T17:24:55.230Z,17.60
2022-10-16T17:27:23.830Z,17.73
2022-10-16T17:29:53.927Z,16.90
2022-10-16T17:32:23.713Z,15.60
2022-10-16T17:34:51.835Z,17.70
2022-10-16T17:37:19.929Z,17.13
2022-10-16T17:39:48.231Z,18.07
2022-10-16T17:42:16.293Z,17.27
2022-10-16T17:44:44.381Z,18.00
2022-10-16T17:47:14.055Z,18.50
2022-10-16T17:49:42.423Z,19.47
2022-10-16T17:52:10.612Z,84.20
2022-10-16T17:54:39.842Z,25.80
2022-10-16T17:57:08.100Z,19.03
2022-10-16T17:59:36.181Z,16.73
2022-10-16T18:02:04.869Z,16.90
2022-10-16T18:04:34.563Z,16.73
2022-10-16T18:07:02.702Z,16.30
2022-10-16T18:09:31.082Z,17.27
2022-10-16T18:12:00.825Z,16.83
2022-10-16T18:14:30.230Z,17.43
2022-10-16T18:16:58.897Z,16.80
2022-10-16T18:19:27.696Z,17.53
2022-10-16T18:21:57.487Z,19.47
2022-10-16T18:24:26.429Z,19.27
2022-10-16T18:26:56.849Z,19.97
2022-10-16T18:29:26.410Z,19.47
2022-10-16T18:31:54.992Z,19.23
2022-10-16T18:34:23.353Z,18.40
2022-10-16T18:36:54.265Z,24.53
2022-10-16T18:39:24.806Z,26.73
2022-10-16T18:41:59.494Z,21.13
2022-10-16T18:44:27.841Z,18.70
2022-10-16T18:46:59.073Z,18.30
2022-10-16T18:49:28.213Z,19.70
2022-10-16T18:51:57.603Z,20.47
2022-10-16T18:54:27.102Z,20.87
2022-10-16T18:56:55.345Z,20.37
2022-10-16T18:59:23.616Z,19.63
2022-10-16T19:01:52.523Z,18.93
2022-10-16T19:04:22.417Z,17.90
2022-10-16T19:06:52.989Z,17.83
2022-10-16T19:09:23.706Z,18.23
2022-10-16T19:11:53.587Z,18.47
2022-10-16T19:14:21.818Z,17.73
2022-10-16T19:16:49.925Z,18.73
2022-10-16T19:19:19.419Z,16.67
2022-10-16T19:21:51.192Z,17.13
2022-10-16T19:24:19.315Z,18.00
2022-10-16T19:26:47.429Z,17.03
2022-10-16T19:29:16.899Z,16.43
2022-10-16T19:31:45.036Z,18.63
2022-10-16T19:34:13.233Z,19.13
2022-10-16T19:36:42.139Z,15.10
2022-10-16T19:39:14.210Z,15.20
2022-10-16T19:41:42.688Z,14.37
2022-10-16T19:44:12.929Z,13.27
2022-10-16T19:46:43.176Z,13.80
2022-10-16T19:49:14.368Z,13.33
2022-10-16T19:51:42.442Z,12.33
2022-10-16T19:54:13.698Z,12.47
2022-10-16T19:56:42.652Z,12.57
2022-10-16T19:59:13.142Z,12.40
2022-10-16T20:01:42.874Z,12.03
2022-10-16T20:04:11.193Z,11.23
2022-10-16T20:06:39.543Z,11.10
2022-10-16T20:09:08.031Z,11.03
2022-10-16T20:11:36.935Z,11.67
2022-10-16T20:14:06.221Z,10.90
2022-10-16T20:16:34.364Z,10.73
2022-10-16T20:19:05.025Z,10.90
2022-10-16T20:21:35.266Z,11.67
2022-10-16T20:24:05.166Z,10.47
2022-10-16T20:26:33.556Z,10.20
2022-10-16T20:29:02.228Z,10.73
2022-10-16T20:31:32.202Z,10.57
2022-10-16T20:34:05.841Z,10.80
2022-10-16T20:36:34.166Z,9.87
2022-10-16T20:39:02.961Z,10.83
2022-10-16T20:41:31.087Z,9.50
2022-10-16T20:43:59.770Z,10.43
2022-10-16T20:46:30.043Z,10.10
2022-10-16T20:49:10.524Z,10.53
2022-10-16T20:51:41.007Z,10.77
2022-10-16T20:54:09.114Z,9.10
2022-10-16T20:56:38.561Z,10.27
2022-10-16T20:59:07.266Z,10.53
2022-10-16T21:01:36.768Z,10.33
2022-10-16T21:04:07.171Z,10.37
2022-10-16T21:06:36.980Z,10.23
2022-10-16T21:09:07.557Z,9.83
2022-10-16T21:11:38.206Z,9.37
2022-10-16T21:14:08.011Z,9.57
2022-10-16T21:16:36.406Z,9.30
2022-10-16T21:19:04.585Z,8.60
2022-10-16T21:21:34.534Z,8.57
2022-10-16T21:24:03.020Z,9.03
2022-10-16T21:26:32.991Z,9.30
2022-10-16T21:29:03.176Z,9.50
2022-10-16T21:31:31.688Z,8.93
2022-10-16T21:34:00.340Z,10.10
2022-10-16T21:36:29.837Z,8.90
2022-10-16T21:39:02.088Z,9.07
2022-10-16T21:41:32.176Z,8.50
2022-10-16T21:44:02.905Z,9.27
2022-10-16T21:46:33.444Z,9.37
2022-10-16T21:49:04.982Z,8.87
2022-10-16T21:51:34.759Z,8.43
2022-10-16T21:54:03.459Z,9.17
2022-10-16T21:56:33.072Z,10.20
2022-10-16T21:59:01.257Z,9.13
2022-10-16T22:01:30.898Z,8.60
2022-10-16T22:03:59.586Z,9.97
2022-10-16T22:06:29.362Z,9.03
2022-10-16T22:08:59.712Z,8.57
2022-10-16T22:11:29.730Z,9.47
2022-10-16T22:13:59.303Z,8.97
2022-10-16T22:16:28.385Z,10.23
2022-10-16T22:18:57.919Z,13.00
2022-10-16T22:21:26.490Z,11.90
2022-10-16T22:23:54.555Z,10.00
2022-10-16T22:26:23.303Z,9.73
2022-10-16T22:28:51.550Z,8.77
2022-10-16T22:31:21.684Z,9.67
2022-10-16T22:33:54.215Z,9.83
2022-10-16T22:36:22.466Z,9.77
2022-10-16T22:38:50.702Z,8.97
2022-10-16T22:41:18.837Z,9.73
2022-10-16T22:43:48.417Z,9.47
2022-10-16T22:46:19.087Z,9.33
2022-10-16T22:48:48.568Z,9.07
2022-10-16T22:51:17.546Z,9.60
2022-10-16T22:53:46.280Z,8.90
2022-10-16T22:56:15.229Z,9.60
2022-10-16T22:58:43.471Z,9.70
2022-10-16T23:01:13.735Z,8.87
2022-10-16T23:03:41.884Z,8.73
2022-10-16T23:06:11.452Z,9.27
2022-10-16T23:08:39.810Z,8.93
2022-10-16T23:11:09.385Z,9.07
2022-10-16T23:13:38.811Z,9.23
2022-10-16T23:16:08.375Z,8.67
2022-10-16T23:18:36.754Z,9.73
2022-10-16T23:21:06.705Z,9.37
2022-10-16T23:23:37.786Z,8.63
2022-10-16T23:26:10.003Z,9.13
2022-10-16T23:28:38.188Z,9.27
2022-10-16T23:31:07.062Z,9.13
2022-10-16T23:33:36.637Z,9.43
2022-10-16T23:36:06.960Z,8.57
2022-10-16T23:38:36.629Z,9.73
2022-10-16T23:41:05.198Z,9.87
2022-10-16T23:43:33.625Z,8.97
2022-10-16T23:46:02.193Z,9.27
2022-10-16T23:48:30.362Z,8.10
2022-10-16T23:50:58.499Z,9.40
2022-10-16T23:53:26.712Z,8.00
2022-10-16T23:55:56.233Z,7.53
2022-10-16T23:58:24.465Z,7.90
